Bathurst Island Cape Fourcroy, Australia
Current Conditions -  °F | °C
As of 12:30 AM on Saturday 29 Nov 2014 (Local Time) from YPDN Reporting Station
Clear Clear  
Wind Chill: 79°   Ceiling: Unl
Heat Index: 82°   Visibility: 6mi
Dew Point: 75°   Wind: 0mph
Humidity: 89%   Direction: NA
Pressure: 29.77"   Gusts: NA
Location:  11.78°S, 130.02°E
Report Text: YPDN 281530Z 00000KT CAVOK 26/24 Q1008
Loading
Personal Weather Stations






























Interactive Weather Map New forecast layout! Learn more

10-Day Weather Forecast

Advertisements
Track Severe Weather on mobile